Time;durP1;ratioP1;P1;durP2;ratioP2;P2;SDS_P1;SDS_P2;PMS_P1;PMS_P2;Temp;Humidity;BMP_temperature;BMP_pressure;BME280_temperature;BME280_humidity;BME280_pressure;Samples;Min_cycle;Max_cycle;Signal;HPM_P1;HPM_P2
2021/09/27 06:32:53;;;;;;;11.75;8.85;;;;;;;17.88;100.00;100937.28;2614433;36;20026;-46
2021/09/27 06:35:28;;;;;;;11.82;9.57;;;;;;;17.36;100.00;100927.72;2578989;36;2004183;-48
2021/09/27 06:37:59;;;;;;;10.18;9.05;;;;;;;17.52;100.00;100936.41;2615041;36;20038;-46
2021/09/27 06:40:28;;;;;;;10.57;9.27;;;;;;;17.76;100.00;100936.44;2615907;31;20026;-49
2021/09/27 06:42:56;;;;;;;11.50;9.52;;;;;;;17.79;100.00;100933.84;2616119;31;20034;-51
2021/09/27 06:45:23;;;;;;;11.90;9.90;;;;;;;17.91;100.00;100917.44;2615178;36;20037;-53
2021/09/27 06:47:50;;;;;;;10.52;9.43;;;;;;;17.89;100.00;100921.75;2615790;31;20034;-47
2021/09/27 06:50:17;;;;;;;11.57;9.10;;;;;;;17.76;100.00;100920.91;2616375;31;20172;-51
2021/09/27 06:52:44;;;;;;;11.40;9.43;;;;;;;18.05;100.00;100928.63;2615086;36;20127;-51
2021/09/27 06:55:13;;;;;;;12.98;9.68;;;;;;;18.04;100.00;100934.69;2615066;36;20030;-52
2021/09/27 06:57:40;;;;;;;11.63;9.63;;;;;;;17.86;100.00;100923.47;2614683;36;20035;-49
2021/09/27 07:00:08;;;;;;;14.48;9.45;;;;;;;18.03;100.00;100927.78;2615746;36;20458;-54
2021/09/27 07:02:35;;;;;;;10.82;9.80;;;;;;;17.81;100.00;100926.94;2615492;31;20031;-53
2021/09/27 07:05:03;;;;;;;12.00;8.98;;;;;;;17.67;100.00;100915.69;2615636;36;20775;-49
2021/09/27 07:07:30;;;;;;;11.48;9.48;;;;;;;17.46;100.00;100918.25;2615932;31;20031;-50
2021/09/27 07:10:00;;;;;;;10.55;9.48;;;;;;;17.42;100.00;100913.91;2615562;31;20030;-51
2021/09/27 07:12:27;;;;;;;10.02;9.02;;;;;;;17.46;100.00;100926.88;2614598;31;20037;-53
2021/09/27 07:14:55;;;;;;;13.23;9.20;;;;;;;17.75;100.00;100929.53;2614535;31;20034;-54
2021/09/27 07:17:23;;;;;;;11.38;8.77;;;;;;;17.85;100.00;100935.56;2614107;36;20035;-51
2021/09/27 07:19:50;;;;;;;15.27;10.73;;;;;;;17.82;100.00;100935.56;2614511;36;20034;-48
2021/09/27 07:22:23;;;;;;;11.13;9.63;;;;;;;17.71;100.00;100938.13;2615426;31;20058;-50
2021/09/27 07:24:52;;;;;;;11.80;10.07;;;;;;;17.75;100.00;100933.84;2614741;31;20637;-48
2021/09/27 07:27:20;;;;;;;11.10;10.00;;;;;;;17.55;100.00;100929.47;2614705;31;20038;-48
2021/09/27 07:29:47;;;;;;;12.00;9.43;;;;;;;17.61;100.00;100927.75;2615021;31;20580;-56
2021/09/27 07:32:14;;;;;;;10.02;9.02;;;;;;;17.60;100.00;100929.47;2614470;36;20041;-46
2021/09/27 07:34:42;;;;;;;10.30;9.25;;;;;;;17.80;100.00;100938.16;2615406;36;20130;-55
2021/09/27 07:37:09;;;;;;;10.55;9.02;;;;;;;18.19;100.00;100936.41;2614475;36;20061;-49
2021/09/27 07:39:37;;;;;;;10.60;9.50;;;;;;;18.12;100.00;100932.09;2613952;36;20042;-47
2021/09/27 07:42:06;;;;;;;12.02;8.77;;;;;;;18.15;100.00;100926.03;2614630;31;20037;-51
2021/09/27 07:44:33;;;;;;;10.38;9.30;;;;;;;18.57;100.00;100933.69;2614851;36;20070;-53
2021/09/27 07:47:02;;;;;;;9.75;8.85;;;;;;;18.77;100.00;100932.81;2615921;31;20053;-51
2021/09/27 07:49:29;;;;;;;9.65;8.65;;;;;;;18.57;100.00;100927.66;2614760;36;20045;-53
2021/09/27 07:51:57;;;;;;;11.52;9.45;;;;;;;18.54;100.00;100931.13;2615238;31;20041;-47
2021/09/27 07:54:25;;;;;;;9.93;8.93;;;;;;;18.66;100.00;100927.63;2616591;31;20466;-46
2021/09/27 07:56:53;;;;;;;10.50;9.05;;;;;;;18.67;100.00;100924.16;2615310;31;20038;-48
2021/09/27 07:59:21;;;;;;;10.57;8.43;;;;;;;18.72;100.00;100924.16;2616265;31;20086;-47
2021/09/27 08:01:48;;;;;;;12.40;9.73;;;;;;;18.81;100.00;100924.13;2614644;36;20409;-51
2021/09/27 08:04:17;;;;;;;12.07;8.52;;;;;;;19.11;100.00;100919.66;2613377;36;20038;-46
2021/09/27 08:06:44;;;;;;;10.15;9.05;;;;;;;19.35;100.00;100919.50;2615889;31;20454;-49
2021/09/27 08:09:12;;;;;;;10.30;8.88;;;;;;;19.16;100.00;100925.69;2614895;36;20034;-50
2021/09/27 08:11:43;;;;;;;10.35;9.23;;;;;;;19.49;100.00;100917.66;2615924;31;20549;-49
2021/09/27 08:14:12;;;;;;;12.10;9.25;;;;;;;18.98;100.00;100926.66;2615129;36;20068;-48
2021/09/27 08:16:43;;;;;;;10.73;9.57;;;;;;;19.12;100.00;100932.63;2578930;36;2004756;-47
2021/09/27 08:19:10;;;;;;;10.73;9.70;;;;;;;18.96;100.00;100928.41;2615514;36;20042;-47
2021/09/27 08:21:38;;;;;;;10.95;9.35;;;;;;;19.14;100.00;100927.44;2615230;36;20045;-46
2021/09/27 08:24:05;;;;;;;12.27;9.00;;;;;;;19.14;100.00;100930.91;2615685;36;20031;-51
2021/09/27 08:26:32;;;;;;;10.50;9.30;;;;;;;18.93;100.00;100941.38;2615291;31;20031;-47
2021/09/27 08:28:59;;;;;;;11.35;9.98;;;;;;;18.96;100.00;100933.59;2616023;31;20426;-52
2021/09/27 08:31:26;;;;;;;11.52;9.35;;;;;;;19.41;100.00;100935.03;2615370;31;20082;-54
2021/09/27 08:33:54;;;;;;;11.13;10.00;;;;;;;19.31;100.00;100933.38;2615455;36;20031;-54
2021/09/27 08:36:24;;;;;;;11.07;9.98;;;;;;;19.32;100.00;100945.53;2614993;31;20038;-50
2021/09/27 08:38:52;;;;;;;11.07;9.77;;;;;;;19.44;100.00;100949.75;2615037;31;20022;-48
2021/09/27 08:41:48;;;;;;;11.85;9.18;;;;;;;19.56;100.00;100940.16;2615088;36;20035;-48
2021/09/27 08:44:27;;;;;;;11.13;9.60;;;;;;;19.26;100.00;100932.56;2578778;36;2004641;-49
2021/09/27 08:47:14;;;;;;;11.00;9.60;;;;;;;19.36;100.00;100934.22;2614783;31;20034;-49
2021/09/27 08:49:41;;;;;;;11.63;10.50;;;;;;;19.29;100.00;100925.59;2614686;31;20554;-51
2021/09/27 08:52:13;;;;;;;10.98;9.48;;;;;;;19.31;100.00;100925.59;2615524;31;20045;-48
2021/09/27 08:54:42;;;;;;;10.20;9.18;;;;;;;19.74;100.00;100928.78;2615267;31;20030;-48
2021/09/27 08:57:39;;;;;;;10.55;9.10;;;;;;;19.54;100.00;100925.44;2615259;31;20030;-50
2021/09/27 09:00:28;;;;;;;11.75;9.40;;;;;;;19.38;100.00;100926.44;2578722;36;2004739;-50
2021/09/27 09:03:01;;;;;;;11.93;10.02;;;;;;;19.51;100.00;100922.88;2579924;31;2004290;-49
2021/09/27 09:05:36;;;;;;;11.65;9.02;;;;;;;20.04;100.00;100932.84;2616312;31;20336;-50
2021/09/27 09:08:09;;;;;;;13.32;9.38;;;;;;;20.22;100.00;100939.59;2615721;31;20036;-45
2021/09/27 09:10:49;;;;;;;10.48;9.38;;;;;;;19.98;100.00;100929.44;2614835;36;20082;-47
2021/09/27 09:13:23;;;;;;;10.38;9.32;;;;;;;19.86;100.00;100935.59;2579403;31;2004588;-48
2021/09/27 09:16:01;;;;;;;9.93;8.93;;;;;;;19.79;100.00;100932.22;2615530;36;20459;-47
2021/09/27 09:18:37;;;;;;;10.98;9.80;;;;;;;19.73;100.00;100933.97;2615618;31;20038;-51
2021/09/27 09:21:11;;;;;;;11.05;9.98;;;;;;;19.48;100.00;100926.34;2614706;36;20034;-48
2021/09/27 09:23:45;;;;;;;10.70;9.75;;;;;;;19.31;100.00;100929.03;2615898;31;20026;-47
2021/09/27 09:26:17;;;;;;;10.60;9.60;;;;;;;19.52;100.00;100934.97;2579360;31;2004561;-53
2021/09/27 09:28:48;;;;;;;10.35;9.30;;;;;;;19.37;100.00;100940.28;2615215;31;20034;-53
2021/09/27 09:31:22;;;;;;;13.70;9.95;;;;;;;19.32;100.00;100935.13;2614271;31;20035;-52
2021/09/27 09:33:57;;;;;;;10.23;9.07;;;;;;;19.46;100.00;100948.00;2614928;31;20062;-51
2021/09/27 09:36:34;;;;;;;14.23;10.20;;;;;;;19.56;100.00;100940.16;2614744;31;20439;-51
2021/09/27 09:39:31;;;;;;;10.15;9.15;;;;;;;19.72;100.00;100947.84;2615439;31;20046;-55
2021/09/27 09:42:03;;;;;;;13.07;9.73;;;;;;;19.79;100.00;100944.34;2578393;36;2004375;-54
2021/09/27 20:05:01;;;;;;;28.10;21.85;;;;;;;17.02;100.00;100968.19;2613175;36;20034;-57
2021/09/27 20:07:29;;;;;;;27.40;22.27;;;;;;;17.03;100.00;100967.31;2614616;31;20570;-56
2021/09/27 20:09:56;;;;;;;27.40;22.20;;;;;;;17.04;100.00;100974.22;2614763;31;20147;-55
2021/09/27 20:12:23;;;;;;;31.25;23.23;;;;;;;17.03;100.00;100968.19;2615481;36;20034;-57
2021/09/27 20:14:51;;;;;;;29.13;22.98;;;;;;;17.04;100.00;100974.22;2615040;36;20042;-55
2021/09/27 20:17:20;;;;;;;26.77;22.60;;;;;;;17.01;100.00;100969.91;2615208;36;20030;-53
2021/09/27 20:19:47;;;;;;;28.60;23.45;;;;;;;16.98;100.00;100967.31;2615953;31;20065;-56
2021/09/27 20:22:14;;;;;;;28.63;23.58;;;;;;;16.93;100.00;100969.03;2615851;36;20566;-56
2021/09/27 20:24:42;;;;;;;27.70;23.05;;;;;;;16.93;100.00;100971.59;2615477;36;20026;-56
2021/09/27 20:27:09;;;;;;;29.27;23.00;;;;;;;16.94;100.00;100982.81;2615624;31;20034;-55
2021/09/27 20:29:37;;;;;;;28.35;23.30;;;;;;;16.93;100.00;100981.94;2615700;36;20041;-57
2021/09/27 20:32:05;;;;;;;30.35;23.92;;;;;;;16.91;100.00;100978.47;2616291;31;20308;-58
2021/09/27 20:34:35;;;;;;;32.80;24.17;;;;;;;16.88;100.00;100975.91;2615552;31;20030;-59
2021/09/27 20:37:05;;;;;;;30.88;23.98;;;;;;;16.89;100.00;100971.59;2617848;31;20578;-59
2021/09/27 20:39:32;;;;;;;27.38;22.35;;;;;;;16.90;100.00;100976.75;2615789;31;20038;-57
2021/09/27 20:42:00;;;;;;;28.77;24.08;;;;;;;16.90;100.00;100976.75;2618449;36;20747;-54
2021/09/27 20:44:27;;;;;;;31.33;24.15;;;;;;;16.87;100.00;100979.34;2615795;31;20784;-52
2021/09/27 20:46:55;;;;;;;30.38;23.65;;;;;;;16.86;100.00;100980.19;2615317;36;20034;-57
2021/09/27 20:49:25;;;;;;;34.38;24.38;;;;;;;16.87;100.00;100975.88;2615431;36;20026;-57
2021/09/27 20:51:57;;;;;;;30.20;24.75;;;;;;;16.87;100.00;100973.28;2615254;31;20126;-52
2021/09/27 20:54:25;;;;;;;30.17;24.10;;;;;;;16.85;100.00;100975.88;2615842;31;20041;-53
2021/09/27 20:57:04;;;;;;;30.50;23.95;;;;;;;16.84;100.00;100981.91;2615102;31;20593;-54
2021/09/27 20:59:31;;;;;;;32.55;25.63;;;;;;;16.84;100.00;100983.63;2615447;31;20039;-53
2021/09/27 21:01:59;;;;;;;32.80;25.83;;;;;;;16.83;100.00;100979.31;2615622;36;20038;-54
2021/09/27 21:04:26;;;;;;;31.40;24.92;;;;;;;16.80;100.00;100975.84;2615760;31;20038;-55
2021/09/27 21:06:53;;;;;;;30.85;24.02;;;;;;;16.80;100.00;100972.41;2616840;31;20031;-57
2021/09/27 21:09:20;;;;;;;32.67;26.45;;;;;;;16.80;100.00;100978.44;2615858;36;20030;-60
2021/09/27 21:11:48;;;;;;;30.92;24.15;;;;;;;16.79;100.00;100978.44;2615704;36;20034;-54
2021/09/27 21:14:15;;;;;;;32.92;25.38;;;;;;;16.82;100.00;100991.38;2615644;36;20554;-55
2021/09/27 21:16:42;;;;;;;35.95;26.08;;;;;;;16.81;100.00;100981.88;2616287;31;20034;-58
2021/09/27 21:19:11;;;;;;;31.50;24.50;;;;;;;16.79;100.00;100994.81;2615895;36;20031;-54
2021/09/27 21:21:38;;;;;;;28.23;24.05;;;;;;;16.79;100.00;100993.97;2615708;36;20030;-58
2021/09/27 21:24:06;;;;;;;30.88;25.15;;;;;;;16.76;100.00;100983.59;2615402;36;20022;-54
2021/09/27 21:26:33;;;;;;;32.80;25.92;;;;;;;16.75;100.00;100997.38;2615187;36;20034;-54
2021/09/27 21:29:00;;;;;;;32.90;23.98;;;;;;;16.76;100.00;100994.78;2615325;36;20035;-54
2021/09/27 21:31:27;;;;;;;31.35;25.48;;;;;;;16.78;100.00;100995.69;2615752;36;20077;-54
2021/09/27 21:33:54;;;;;;;30.77;24.58;;;;;;;16.77;100.00;100993.94;2615533;31;20050;-52
2021/09/27 21:36:21;;;;;;;34.70;25.50;;;;;;;16.77;100.00;100998.25;2615404;31;20030;-55
2021/09/27 21:38:49;;;;;;;30.27;24.42;;;;;;;16.77;100.00;101000.81;2615571;31;20038;-56
2021/09/27 21:41:17;;;;;;;30.02;24.30;;;;;;;16.77;100.00;100998.25;2615713;31;20031;-55
2021/09/27 21:43:45;;;;;;;33.50;25.10;;;;;;;16.75;100.00;100992.22;2615255;36;20038;-54
2021/09/27 21:46:12;;;;;;;35.97;25.90;;;;;;;16.73;100.00;100992.22;2615693;31;20038;-57
2021/09/27 21:48:41;;;;;;;33.13;25.48;;;;;;;16.72;100.00;100998.22;2615459;36;20115;-53
2021/09/27 21:51:08;;;;;;;29.85;24.90;;;;;;;16.72;100.00;101005.97;2615153;36;20026;-55
2021/09/27 21:53:35;;;;;;;38.85;26.60;;;;;;;16.73;100.00;101002.56;2617481;31;20057;-56
2021/09/27 21:56:03;;;;;;;32.63;25.65;;;;;;;16.75;100.00;101005.16;2616034;31;20030;-59
2021/09/27 21:58:30;;;;;;;34.17;25.17;;;;;;;16.74;100.00;100999.13;2615295;36;20149;-57
2021/09/27 22:00:57;;;;;;;37.45;26.67;;;;;;;16.75;100.00;101006.00;2615903;31;20023;-57
2021/09/27 22:03:24;;;;;;;37.03;26.20;;;;;;;16.74;100.00;101001.69;2615505;36;20134;-57
2021/09/27 22:05:51;;;;;;;34.63;25.73;;;;;;;16.76;100.00;101004.28;2615772;36;20034;-60
2021/09/27 22:08:21;;;;;;;38.03;25.80;;;;;;;16.72;100.00;101005.97;2615404;36;20038;-58
2021/09/27 22:10:50;;;;;;;37.63;26.40;;;;;;;16.72;100.00;100999.94;2615265;36;20570;-56
2021/09/27 22:13:20;;;;;;;33.78;25.65;;;;;;;16.73;100.00;101004.25;2615178;36;20037;-60
2021/09/27 22:15:47;;;;;;;36.08;27.63;;;;;;;16.72;100.00;101005.97;2621041;36;20023;-61
2021/09/27 22:18:14;;;;;;;38.78;27.95;;;;;;;16.73;100.00;101009.44;2620161;36;20038;-57
2021/09/27 22:20:42;;;;;;;38.00;26.40;;;;;;;16.69;100.00;101003.38;2616921;31;20414;-58
2021/09/27 22:23:10;;;;;;;34.35;25.48;;;;;;;16.71;100.00;101008.53;2616374;31;20046;-61
2021/09/27 22:25:38;;;;;;;36.85;27.00;;;;;;;16.69;100.00;101008.53;2616603;31;20038;-56
2021/09/27 22:28:05;;;;;;;35.03;25.80;;;;;;;16.65;100.00;101008.50;2614921;36;20594;-55
2021/09/27 22:30:33;;;;;;;35.05;26.00;;;;;;;16.59;100.00;101005.88;2615863;31;20038;-57
2021/09/27 22:33:02;;;;;;;41.10;27.77;;;;;;;16.52;100.00;101013.59;2615666;36;20031;-58
2021/09/27 22:35:29;;;;;;;45.35;30.10;;;;;;;16.47;100.00;101020.47;2616745;31;20348;-56
2021/09/27 22:37:56;;;;;;;38.28;28.25;;;;;;;16.45;100.00;101013.53;2615049;36;20031;-59
2021/09/27 22:40:23;;;;;;;39.08;27.80;;;;;;;16.42;100.00;101018.69;2615651;31;20030;-55
2021/09/27 22:42:53;;;;;;;39.35;28.73;;;;;;;16.37;100.00;101012.63;2615278;31;20038;-53
2021/09/27 22:45:20;;;;;;;43.00;28.45;;;;;;;16.28;100.00;101006.53;2615214;36;20030;-58
2021/09/27 22:47:47;;;;;;;39.28;29.20;;;;;;;16.28;100.00;101016.88;2615105;36;20030;-59
2021/09/27 22:50:16;;;;;;;41.85;28.17;;;;;;;16.20;100.00;101013.38;2615844;36;20039;-59
2021/09/27 22:52:44;;;;;;;42.00;29.10;;;;;;;16.13;100.00;101016.78;2615628;31;20039;-58
2021/09/27 22:55:12;;;;;;;41.40;30.55;;;;;;;16.12;100.00;101015.00;2614820;36;20023;-57
2021/09/27 22:57:39;;;;;;;39.47;29.40;;;;;;;16.08;100.00;101013.25;2615583;31;20049;-57
2021/09/27 23:00:09;;;;;;;43.78;30.33;;;;;;;16.07;100.00;101011.53;2615916;31;20057;-60
2021/09/27 23:02:36;;;;;;;42.65;30.35;;;;;;;15.98;100.00;101004.56;2615186;36;20034;-60
2021/09/27 23:05:05;;;;;;;45.50;32.72;;;;;;;16.00;100.00;101015.78;2615197;36;20035;-56
2021/09/27 23:07:33;;;;;;;46.45;32.25;;;;;;;15.98;100.00;101017.47;2615983;31;20034;-58
2021/09/27 23:10:00;;;;;;;44.55;32.40;;;;;;;15.95;100.00;101019.19;2615425;36;20031;-57
2021/09/27 23:12:27;;;;;;;46.13;30.50;;;;;;;15.96;100.00;101014.03;2615195;36;20027;-57
2021/09/27 23:14:55;;;;;;;44.38;32.17;;;;;;;15.94;100.00;101020.03;2615579;36;20038;-54
2021/09/27 23:17:22;;;;;;;48.13;33.20;;;;;;;15.93;100.00;101026.91;2616322;31;20026;-55
2021/09/27 23:19:49;;;;;;;41.67;31.35;;;;;;;15.89;100.00;101030.31;2616793;36;20034;-54
2021/09/27 23:22:16;;;;;;;46.78;33.00;;;;;;;15.88;100.00;101019.97;2618089;31;20038;-55
2021/09/27 23:24:44;;;;;;;43.80;31.95;;;;;;;15.86;100.00;101019.97;2616827;36;20038;-54
2021/09/27 23:27:11;;;;;;;46.75;33.22;;;;;;;15.90;100.00;101015.66;2615973;36;20041;-56
2021/09/27 23:29:44;;;;;;;48.63;32.22;;;;;;;15.86;100.00;101025.13;2615894;36;20038;-53
2021/09/27 23:32:15;;;;;;;47.55;33.03;;;;;;;15.84;100.00;101031.97;2615929;36;20038;-55
2021/09/27 23:34:43;;;;;;;45.28;32.30;;;;;;;15.81;100.00;101036.25;2616335;31;20034;-55
2021/09/27 23:37:11;;;;;;;48.45;32.88;;;;;;;15.79;100.00;101029.34;2615876;36;20038;-53
2021/09/27 23:39:39;;;;;;;44.97;31.98;;;;;;;15.75;100.00;101032.75;2615911;36;20050;-53
2021/09/27 23:42:07;;;;;;;44.15;32.83;;;;;;;15.74;100.00;101032.75;2616591;31;20045;-53
2021/09/27 23:44:34;;;;;;;46.00;33.13;;;;;;;15.72;100.00;101040.50;2617043;36;20462;-53
2021/09/27 23:47:02;;;;;;;51.13;34.70;;;;;;;15.71;100.00;101035.28;2615899;36;20046;-55
2021/09/27 23:49:29;;;;;;;54.00;35.95;;;;;;;15.70;100.00;101036.16;2616874;31;20034;-54
2021/09/27 23:51:56;;;;;;;49.22;33.65;;;;;;;15.66;100.00;101031.81;2615908;31;20035;-57
2021/09/27 23:54:24;;;;;;;46.22;33.33;;;;;;;15.65;100.00;101037.81;2616996;31;20438;-51
2021/09/27 23:56:51;;;;;;;53.08;35.33;;;;;;;15.66;100.00;101036.97;2617372;31;20026;-53
2021/09/27 23:59:19;;;;;;;52.70;35.03;;;;;;;15.71;100.00;101043.91;2617113;31;20034;-55
